Time;durP1;ratioP1;P1;durP2;ratioP2;P2;SDS_P1;SDS_P2;PMS_P1;PMS_P2;Temp;Humidity;BMP_temperature;BMP_pressure;BME280_temperature;BME280_humidity;BME280_pressure;Samples;Min_cycle;Max_cycle;Signal;HPM_P1;HPM_P2
2023/03/05 00:02:02;;;;;;;36.23;17.87;;;4.90;99.90;;;;;;5077848;28;20938;-71
2023/03/05 00:04:48;;;;;;;38.30;18.40;;;4.90;99.90;;;;;;5080873;28;20443;-70
2023/03/05 00:07:34;;;;;;;34.37;17.43;;;4.90;99.90;;;;;;5078897;28;20519;-71
2023/03/05 00:10:21;;;;;;;35.03;19.80;;;4.80;99.90;;;;;;5089876;28;20447;-70
2023/03/05 00:13:08;;;;;;;35.63;18.20;;;4.90;99.90;;;;;;5087847;28;20463;-71
2023/03/05 00:15:54;;;;;;;38.17;18.67;;;4.90;99.90;;;;;;5079715;28;20466;-71
2023/03/05 00:18:40;;;;;;;45.73;19.73;;;4.90;99.90;;;;;;5077603;28;20444;-71
2023/03/05 00:21:30;;;;;;;39.00;18.27;;;4.80;99.90;;;;;;5073198;28;20446;-71
2023/03/05 00:24:18;;;;;;;38.13;18.10;;;4.70;99.90;;;;;;5082183;28;20468;-71
2023/03/05 00:27:04;;;;;;;32.13;17.93;;;4.70;99.90;;;;;;5079675;28;20465;-71
2023/03/05 00:29:51;;;;;;;42.83;18.53;;;4.70;99.90;;;;;;5085983;28;20446;-71
2023/03/05 00:32:36;;;;;;;35.20;17.27;;;4.70;99.90;;;;;;5088056;28;20507;-71
2023/03/05 00:35:22;;;;;;;36.03;19.53;;;4.70;99.90;;;;;;5097445;28;20485;-71
2023/03/05 00:38:08;;;;;;;43.07;17.47;;;4.70;99.90;;;;;;5083548;28;20442;-71
2023/03/05 00:40:54;;;;;;;35.60;18.23;;;4.60;99.90;;;;;;5078938;28;20535;-71
2023/03/05 00:43:40;;;;;;;33.60;17.80;;;4.70;99.90;;;;;;5087779;28;20447;-71
2023/03/05 00:46:27;;;;;;;33.95;17.40;;;4.70;99.90;;;;;;5085868;28;20630;-72
2023/03/05 00:49:13;;;;;;;38.20;17.43;;;4.60;99.90;;;;;;5081876;28;20212;-71
2023/03/05 00:51:59;;;;;;;36.47;18.70;;;4.60;99.90;;;;;;5087659;28;20447;-72
2023/03/05 00:54:44;;;;;;;38.25;19.27;;;4.50;99.90;;;;;;5087113;28;20534;-73
2023/03/05 00:57:30;;;;;;;38.17;17.80;;;4.60;99.90;;;;;;5092918;28;20218;-71
2023/03/05 01:00:17;;;;;;;34.73;18.73;;;4.60;99.90;;;;;;5084525;28;20260;-71
2023/03/05 01:03:03;;;;;;;40.63;18.37;;;4.60;99.90;;;;;;5079641;28;20424;-71
2023/03/05 01:05:49;;;;;;;42.35;20.70;;;4.50;99.90;;;;;;5086292;28;20496;-71
2023/03/05 01:08:36;;;;;;;44.93;19.40;;;4.60;99.90;;;;;;5090814;28;20218;-71
2023/03/05 01:11:21;;;;;;;37.97;17.40;;;4.50;99.90;;;;;;5088009;28;20900;-71
2023/03/05 01:14:07;;;;;;;37.80;19.60;;;4.50;99.90;;;;;;5090987;28;20462;-71
2023/03/05 01:16:53;;;;;;;33.25;18.08;;;4.60;99.90;;;;;;5094920;28;21050;-71
2023/03/05 01:19:40;;;;;;;34.80;17.40;;;4.60;99.90;;;;;;5085102;28;20270;-71
2023/03/05 01:22:26;;;;;;;39.75;18.08;;;4.50;99.90;;;;;;5081545;28;20451;-71
2023/03/05 01:25:13;;;;;;;33.87;18.10;;;4.50;99.90;;;;;;5090188;28;20221;-71
2023/03/05 01:27:58;;;;;;;33.80;18.03;;;4.50;99.90;;;;;;5092983;28;20510;-71
2023/03/05 01:30:44;;;;;;;43.43;17.57;;;4.40;99.90;;;;;;5091288;28;20475;-71
2023/03/05 01:33:30;;;;;;;35.45;19.05;;;4.40;99.90;;;;;;5086649;28;20594;-71
2023/03/05 01:36:16;;;;;;;36.67;18.80;;;4.30;99.90;;;;;;5090618;28;20221;-71
2023/03/05 01:39:02;;;;;;;38.17;18.70;;;4.30;99.90;;;;;;5080632;28;20202;-71
2023/03/05 01:41:48;;;;;;;35.47;18.53;;;4.30;99.90;;;;;;5080265;28;20953;-71
2023/03/05 01:44:34;;;;;;;33.30;17.17;;;4.30;99.90;;;;;;5077234;28;20450;-71
2023/03/05 01:47:19;;;;;;;30.37;15.70;;;4.30;99.90;;;;;;5087324;28;20290;-71
2023/03/05 01:50:07;;;;;;;40.50;16.87;;;4.40;99.90;;;;;;5082242;28;20452;-71
2023/03/05 01:52:58;;;;;;;29.87;16.70;;;4.50;99.90;;;;;;5081717;28;20447;-71
2023/03/05 01:55:44;;;;;;;33.63;17.67;;;4.50;99.90;;;;;;5078040;28;22038;-71
2023/03/05 01:58:30;;;;;;;33.92;18.25;;;4.50;99.90;;;;;;5069452;28;20241;-71
2023/03/05 02:01:15;;;;;;;35.40;18.00;;;4.50;99.90;;;;;;5078784;28;20201;-71
2023/03/05 02:04:02;;;;;;;41.93;19.10;;;4.40;99.90;;;;;;5083232;28;20458;-71
2023/03/05 02:06:48;;;;;;;33.60;17.03;;;4.50;99.90;;;;;;5106158;28;20825;-71
2023/03/05 02:09:38;;;;;;;34.70;17.77;;;4.50;99.90;;;;;;5089012;28;20434;-71
2023/03/05 02:12:23;;;;;;;27.35;16.05;;;4.50;99.90;;;;;;5089060;28;20952;-71
2023/03/05 02:15:10;;;;;;;31.40;16.53;;;4.40;99.90;;;;;;5083147;28;20225;-71
2023/03/05 02:17:56;;;;;;;35.80;17.23;;;4.50;99.90;;;;;;5086022;28;20451;-71
2023/03/05 02:20:47;;;;;;;34.50;17.80;;;4.50;99.90;;;;;;5087378;28;20210;-71
2023/03/05 02:23:36;;;;;;;32.93;16.70;;;4.60;99.90;;;;;;5084635;28;20542;-70
2023/03/05 02:26:21;;;;;;;28.90;15.88;;;4.50;99.90;;;;;;5082345;28;20467;-71
2023/03/05 02:29:09;;;;;;;34.75;18.30;;;4.60;99.90;;;;;;5075550;28;20580;-72
2023/03/05 02:31:55;;;;;;;39.17;17.10;;;4.50;99.90;;;;;;5083479;28;20209;-71
2023/03/05 02:34:41;;;;;;;29.40;15.27;;;4.50;99.90;;;;;;5085948;28;20597;-71
2023/03/05 02:37:26;;;;;;;33.47;18.57;;;4.50;99.90;;;;;;5088273;28;20206;-71
2023/03/05 02:40:14;;;;;;;29.37;15.57;;;4.40;99.90;;;;;;5089997;28;20801;-71
2023/03/05 02:43:00;;;;;;;35.33;17.07;;;4.40;99.90;;;;;;5089897;28;20527;-71
2023/03/05 02:45:45;;;;;;;36.90;15.67;;;4.40;99.90;;;;;;5077382;28;20626;-71
2023/03/05 02:48:31;;;;;;;37.30;16.27;;;4.40;99.90;;;;;;5087177;28;20510;-71
2023/03/05 02:51:17;;;;;;;30.10;16.77;;;4.40;99.90;;;;;;5086618;28;20806;-71
2023/03/05 02:54:03;;;;;;;28.00;15.57;;;4.40;99.90;;;;;;5082629;28;20459;-71
2023/03/05 02:56:50;;;;;;;30.42;16.85;;;4.40;99.90;;;;;;5079288;28;20475;-71
2023/03/05 02:59:36;;;;;;;31.13;16.10;;;4.40;99.90;;;;;;5078126;28;20690;-72
2023/03/05 03:02:22;;;;;;;27.58;15.23;;;4.40;99.90;;;;;;5079612;28;20963;-71
2023/03/05 03:05:08;;;;;;;36.50;17.77;;;4.40;99.90;;;;;;5091028;28;20318;-71
2023/03/05 03:07:54;;;;;;;32.33;15.60;;;4.40;99.90;;;;;;5092052;28;20496;-72
2023/03/05 03:10:40;;;;;;;29.47;15.20;;;4.40;99.90;;;;;;5080762;28;20209;-71
2023/03/05 03:13:27;;;;;;;30.23;16.10;;;4.40;99.90;;;;;;5092190;28;20477;-72
2023/03/05 03:16:14;;;;;;;27.17;15.20;;;4.40;99.90;;;;;;5095038;28;20444;-71
2023/03/05 03:19:00;;;;;;;38.95;16.65;;;4.40;99.90;;;;;;5095276;28;20286;-71
2023/03/05 03:21:45;;;;;;;32.50;16.20;;;4.40;99.90;;;;;;5086373;28;20209;-71
2023/03/05 03:24:31;;;;;;;33.97;16.60;;;4.40;99.90;;;;;;5089833;28;20247;-71
2023/03/05 03:27:17;;;;;;;34.03;17.70;;;4.40;99.90;;;;;;5084212;28;20340;-71
2023/03/05 03:30:05;;;;;;;39.50;15.90;;;4.40;99.90;;;;;;5080942;28;20208;-72
2023/03/05 03:32:51;;;;;;;28.35;16.20;;;4.50;99.90;;;;;;5093273;28;20208;-71
2023/03/05 03:35:37;;;;;;;24.98;15.48;;;4.40;99.90;;;;;;5083784;28;20249;-71
2023/03/05 03:38:22;;;;;;;29.08;17.33;;;4.40;99.90;;;;;;5081614;28;20206;-71
2023/03/05 03:41:09;;;;;;;27.73;15.20;;;4.30;99.90;;;;;;5075905;28;20219;-71
2023/03/05 03:43:54;;;;;;;31.90;16.10;;;4.40;99.90;;;;;;5086922;28;20446;-72
2023/03/05 03:46:43;;;;;;;30.50;15.95;;;4.30;99.90;;;;;;5076333;28;20217;-71
2023/03/05 03:49:28;;;;;;;30.38;16.42;;;4.30;99.90;;;;;;5080269;28;20279;-71
2023/03/05 03:52:14;;;;;;;45.10;17.80;;;4.30;99.90;;;;;;5078927;28;20260;-72
2023/03/05 03:55:00;;;;;;;37.57;16.90;;;4.30;99.90;;;;;;5079487;28;20472;-71
2023/03/05 03:57:46;;;;;;;36.42;18.00;;;4.30;99.90;;;;;;5078456;28;20443;-71
2023/03/05 04:00:31;;;;;;;27.75;16.33;;;4.30;99.90;;;;;;5078617;28;20208;-71
2023/03/05 04:03:18;;;;;;;33.45;16.48;;;4.30;99.90;;;;;;5083601;28;20229;-72
2023/03/05 04:06:04;;;;;;;32.28;17.27;;;4.30;99.90;;;;;;5087609;28;20252;-71
2023/03/05 04:08:50;;;;;;;37.78;16.55;;;4.30;99.90;;;;;;5086705;28;20309;-70
2023/03/05 04:11:36;;;;;;;29.55;17.00;;;4.30;99.90;;;;;;5088075;28;20673;-71
2023/03/05 04:14:21;;;;;;;35.25;16.52;;;4.30;99.90;;;;;;5085093;28;20197;-71
2023/03/05 04:17:07;;;;;;;31.90;17.23;;;4.30;99.90;;;;;;5090163;28;20225;-71
2023/03/05 04:19:54;;;;;;;32.60;16.50;;;4.30;99.90;;;;;;5080033;28;20448;-71
2023/03/05 04:22:40;;;;;;;32.27;17.17;;;4.30;99.90;;;;;;5084296;28;20428;-71
2023/03/05 04:25:25;;;;;;;30.97;15.37;;;4.30;99.90;;;;;;5080656;28;20539;-71
2023/03/05 04:28:11;;;;;;;35.00;16.20;;;4.30;99.90;;;;;;5091160;28;20405;-71
2023/03/05 04:30:56;;;;;;;34.65;16.38;;;4.40;99.90;;;;;;5087328;28;20437;-71
2023/03/05 04:33:42;;;;;;;30.08;16.05;;;4.30;99.90;;;;;;5079802;28;20211;-71
2023/03/05 04:36:29;;;;;;;33.08;17.48;;;4.30;99.90;;;;;;5085297;28;20278;-71
2023/03/05 04:39:15;;;;;;;33.70;17.75;;;4.30;99.90;;;;;;5077220;28;20206;-72
2023/03/05 04:42:01;;;;;;;34.10;17.87;;;4.30;99.90;;;;;;5082037;28;20209;-71
2023/03/05 04:44:47;;;;;;;34.63;17.83;;;4.30;99.90;;;;;;5092404;28;20489;-71
2023/03/05 04:47:33;;;;;;;36.63;17.80;;;4.20;99.90;;;;;;5073433;28;20290;-71
2023/03/05 04:50:18;;;;;;;34.85;16.40;;;4.20;99.90;;;;;;5075410;28;20229;-71
2023/03/05 04:53:06;;;;;;;37.60;17.37;;;4.20;99.90;;;;;;5086026;28;20255;-72
2023/03/05 04:55:53;;;;;;;32.63;17.80;;;4.20;99.90;;;;;;5093849;28;21020;-72
2023/03/05 04:58:39;;;;;;;32.78;16.38;;;4.20;99.90;;;;;;5075175;28;20808;-71
2023/03/05 05:01:25;;;;;;;34.58;19.20;;;4.10;99.90;;;;;;5083360;28;20213;-71
2023/03/05 05:04:10;;;;;;;36.63;18.27;;;4.10;99.90;;;;;;5074460;28;20202;-71
2023/03/05 05:06:56;;;;;;;34.03;16.45;;;4.10;99.90;;;;;;5087598;28;20360;-71
2023/03/05 05:09:43;;;;;;;28.70;16.88;;;4.10;99.90;;;;;;5081330;28;20201;-72
2023/03/05 05:12:30;;;;;;;31.67;17.15;;;4.10;99.90;;;;;;5085850;28;20307;-71
2023/03/05 05:15:16;;;;;;;28.07;17.20;;;4.10;99.90;;;;;;5082755;28;20252;-71
2023/03/05 05:18:01;;;;;;;27.77;16.48;;;4.10;99.90;;;;;;5081794;28;20503;-70
2023/03/05 05:20:47;;;;;;;32.77;16.77;;;4.10;99.90;;;;;;5083104;28;20229;-72
2023/03/05 05:23:33;;;;;;;30.77;16.58;;;4.00;99.90;;;;;;5079484;28;20523;-72
2023/03/05 05:26:20;;;;;;;35.03;18.77;;;4.00;99.90;;;;;;5095859;28;20232;-71
2023/03/05 05:29:05;;;;;;;37.37;17.30;;;4.00;99.90;;;;;;5078010;28;20452;-71
2023/03/05 05:31:52;;;;;;;35.88;18.45;;;4.00;99.90;;;;;;5083931;28;20787;-72
2023/03/05 05:34:38;;;;;;;37.10;21.10;;;4.10;99.90;;;;;;5085437;28;20201;-71
2023/03/05 05:37:24;;;;;;;33.43;18.90;;;4.10;99.90;;;;;;5087007;28;21085;-72
2023/03/05 05:40:10;;;;;;;31.27;19.10;;;4.20;99.90;;;;;;5080540;28;20942;-71
2023/03/05 05:42:58;;;;;;;31.90;20.40;;;4.20;99.90;;;;;;5096556;28;20543;-71
2023/03/05 05:45:43;;;;;;;39.55;19.73;;;4.20;99.90;;;;;;5091720;28;20582;-72
2023/03/05 05:48:30;;;;;;;31.80;16.67;;;4.20;99.90;;;;;;5086018;28;20206;-72
2023/03/05 05:51:17;;;;;;;35.13;18.60;;;4.30;99.90;;;;;;5090855;28;21015;-72
2023/03/05 05:54:03;;;;;;;33.85;16.98;;;4.30;99.90;;;;;;5088434;28;20871;-71
2023/03/05 05:56:49;;;;;;;32.60;16.40;;;4.30;99.90;;;;;;5076743;28;20309;-71
2023/03/05 05:59:37;;;;;;;37.33;20.95;;;4.30;99.90;;;;;;5087491;28;20195;-71
2023/03/05 06:02:22;;;;;;;30.98;19.70;;;4.30;99.90;;;;;;5081148;28;20209;-71
2023/03/05 06:05:11;;;;;;;36.10;19.80;;;4.30;99.90;;;;;;5088569;28;20702;-71
2023/03/05 06:07:57;;;;;;;37.00;21.53;;;4.30;99.90;;;;;;5088131;28;20444;-73
2023/03/05 06:10:42;;;;;;;34.30;18.50;;;4.40;99.90;;;;;;5084288;28;20449;-71
2023/03/05 06:13:28;;;;;;;51.75;21.92;;;4.40;99.90;;;;;;5083831;28;20299;-72
2023/03/05 06:16:17;;;;;;;39.47;20.27;;;4.40;99.90;;;;;;5090111;28;20241;-71
2023/03/05 06:19:03;;;;;;;36.80;20.80;;;4.40;99.90;;;;;;5073651;28;20990;-72
2023/03/05 06:21:49;;;;;;;33.95;19.73;;;4.40;99.90;;;;;;5096964;28;20560;-71
2023/03/05 06:24:34;;;;;;;35.37;19.13;;;4.40;99.90;;;;;;5090827;28;20207;-71
2023/03/05 06:27:20;;;;;;;45.47;21.60;;;4.40;99.90;;;;;;5087285;28;20537;-71
2023/03/05 06:30:07;;;;;;;39.42;20.77;;;4.40;99.90;;;;;;5085281;28;20440;-71
2023/03/05 06:32:54;;;;;;;35.47;21.02;;;4.30;99.90;;;;;;5085201;28;20232;-72
2023/03/05 06:35:40;;;;;;;46.35;21.92;;;4.30;99.90;;;;;;5089878;28;20232;-71
2023/03/05 06:38:26;;;;;;;36.43;23.67;;;4.30;99.90;;;;;;5085236;28;20286;-72
2023/03/05 06:41:13;;;;;;;46.40;21.75;;;4.40;99.90;;;;;;5080549;28;20500;-71
2023/03/05 06:44:01;;;;;;;40.90;22.02;;;4.40;99.90;;;;;;5087570;28;20201;-72
2023/03/05 06:46:46;;;;;;;40.05;21.27;;;4.30;99.90;;;;;;5092868;28;20232;-71
2023/03/05 06:49:33;;;;;;;41.97;22.15;;;4.40;99.90;;;;;;5085515;28;20211;-70
2023/03/05 06:52:19;;;;;;;38.22;20.45;;;4.50;99.90;;;;;;5081539;28;20320;-71
2023/03/05 06:55:05;;;;;;;34.20;20.67;;;4.60;99.90;;;;;;5084952;28;20704;-71
2023/03/05 06:57:51;;;;;;;42.92;21.85;;;4.60;99.90;;;;;;5082995;28;20206;-71
2023/03/05 07:00:36;;;;;;;38.13;20.40;;;4.70;99.90;;;;;;5075218;28;20206;-70
2023/03/05 07:03:22;;;;;;;33.67;20.02;;;4.70;99.90;;;;;;5088100;28;20212;-71
2023/03/05 07:06:11;;;;;;;33.63;19.60;;;4.70;99.90;;;;;;5080161;28;20713;-71
2023/03/05 07:08:57;;;;;;;38.53;21.97;;;4.80;99.90;;;;;;5074988;28;20408;-70
2023/03/05 07:11:43;;;;;;;34.60;20.23;;;4.90;99.90;;;;;;5084022;28;20475;-70
2023/03/05 07:14:29;;;;;;;33.63;20.67;;;4.80;99.90;;;;;;5087082;28;20514;-71
2023/03/05 07:17:15;;;;;;;33.80;20.27;;;4.90;99.90;;;;;;5097517;28;20478;-70
2023/03/05 07:20:00;;;;;;;37.27;20.10;;;4.90;99.90;;;;;;5090190;28;20495;-70
2023/03/05 07:22:47;;;;;;;39.83;20.20;;;4.90;99.90;;;;;;5086568;28;20500;-70
2023/03/05 07:25:35;;;;;;;44.88;22.02;;;4.90;99.90;;;;;;5083656;28;20297;-71
2023/03/05 07:28:21;;;;;;;36.08;21.05;;;5.00;99.90;;;;;;5085978;28;20193;-71
2023/03/05 07:31:08;;;;;;;40.50;21.23;;;5.00;99.90;;;;;;5085206;28;20279;-70
2023/03/05 07:33:54;;;;;;;40.53;20.90;;;5.00;99.90;;;;;;5088075;28;20442;-71
2023/03/05 07:36:41;;;;;;;41.13;19.52;;;5.10;99.90;;;;;;5091099;28;20466;-71
2023/03/05 07:39:28;;;;;;;32.10;21.13;;;5.10;99.90;;;;;;5079606;28;20256;-70
2023/03/05 07:42:14;;;;;;;38.13;21.00;;;5.10;99.90;;;;;;5098626;28;20430;-71
2023/03/05 07:44:59;;;;;;;36.73;20.33;;;5.10;99.90;;;;;;5088600;28;20577;-71
2023/03/05 07:47:45;;;;;;;38.83;20.50;;;5.20;99.90;;;;;;5082722;28;20882;-72
2023/03/05 07:50:32;;;;;;;37.33;21.03;;;5.20;99.90;;;;;;5084366;28;20444;-70
2023/03/05 07:53:17;;;;;;;36.65;20.30;;;5.20;99.90;;;;;;5089431;28;20454;-71
2023/03/05 07:56:05;;;;;;;31.80;20.53;;;5.20;99.90;;;;;;5088405;28;20233;-72
2023/03/05 07:58:51;;;;;;;34.58;21.00;;;5.20;99.90;;;;;;5073923;28;20443;-71
2023/03/05 08:01:37;;;;;;;36.93;20.90;;;5.20;99.90;;;;;;5081735;28;20203;-70
2023/03/05 08:04:23;;;;;;;42.67;25.83;;;5.20;99.90;;;;;;5083523;28;21505;-70
2023/03/05 08:07:10;;;;;;;41.73;24.90;;;5.20;99.90;;;;;;5075037;22;20223;-74
2023/03/05 08:09:56;;;;;;;44.13;22.13;;;5.20;99.90;;;;;;5045770;28;20445;-75
2023/03/05 08:12:43;;;;;;;42.13;20.37;;;5.30;99.90;;;;;;5044893;28;20496;-75
2023/03/05 08:15:29;;;;;;;52.70;22.30;;;5.30;99.90;;;;;;5042050;28;20593;-75
2023/03/05 08:18:17;;;;;;;37.00;20.27;;;5.30;99.90;;;;;;5017969;28;21022;-75
2023/03/05 08:21:03;;;;;;;40.43;19.80;;;5.30;99.90;;;;;;5029674;28;20564;-75
2023/03/05 08:23:49;;;;;;;36.07;19.20;;;5.30;99.90;;;;;;5022286;28;20443;-75
2023/03/05 08:26:37;;;;;;;35.87;20.50;;;5.30;99.90;;;;;;5026079;28;21932;-75
2023/03/05 08:29:24;;;;;;;41.40;20.85;;;5.30;99.90;;;;;;5023445;28;20578;-74
2023/03/05 08:32:10;;;;;;;39.73;20.47;;;5.20;99.90;;;;;;5025279;28;20204;-75
2023/03/05 08:34:57;;;;;;;39.20;20.33;;;5.20;99.90;;;;;;5023974;28;20478;-74
2023/03/05 08:37:43;;;;;;;37.45;19.42;;;5.20;99.90;;;;;;5023898;28;21071;-75
2023/03/05 08:40:28;;;;;;;26.98;18.25;;;5.10;99.90;;;;;;5026237;28;20203;-74
2023/03/05 08:43:14;;;;;;;30.83;17.30;;;5.10;99.90;;;;;;5026554;28;20203;-74
2023/03/05 08:46:02;;;;;;;38.95;18.70;;;5.10;99.90;;;;;;5020972;28;20481;-75
2023/03/05 08:48:48;;;;;;;37.65;18.70;;;5.10;99.90;;;;;;5019876;28;20207;-75
2023/03/05 08:51:34;;;;;;;30.92;16.75;;;5.20;99.90;;;;;;5023712;28;20207;-74
2023/03/05 08:54:20;;;;;;;31.00;18.30;;;5.30;99.90;;;;;;5022816;28;20217;-75
2023/03/05 08:57:07;;;;;;;36.53;17.40;;;5.40;99.90;;;;;;5024040;28;20456;-75
2023/03/05 08:59:52;;;;;;;31.60;17.00;;;5.50;99.90;;;;;;5022494;28;20593;-75
2023/03/05 09:02:39;;;;;;;28.00;15.30;;;5.70;99.90;;;;;;5034427;28;20210;-75
2023/03/05 09:05:25;;;;;;;31.57;16.13;;;5.70;99.90;;;;;;5022598;28;20429;-75
2023/03/05 09:08:11;;;;;;;24.33;15.00;;;5.80;99.90;;;;;;5025965;28;20905;-75
2023/03/05 09:10:57;;;;;;;33.83;14.27;;;5.80;99.90;;;;;;5023873;28;20436;-74
2023/03/05 09:13:42;;;;;;;22.03;12.90;;;5.90;99.90;;;;;;5025420;28;20509;-75
2023/03/05 09:16:28;;;;;;;17.60;11.37;;;6.00;99.90;;;;;;5022168;28;20628;-75
2023/03/05 09:19:15;;;;;;;22.97;10.30;;;6.00;99.90;;;;;;5030603;28;20454;-75
2023/03/05 09:22:00;;;;;;;20.47;11.43;;;6.00;99.90;;;;;;5027467;28;20503;-75
2023/03/05 09:24:46;;;;;;;18.33;10.30;;;6.00;99.90;;;;;;5032598;28;20845;-73
2023/03/05 09:27:33;;;;;;;22.50;10.70;;;6.00;99.90;;;;;;5022752;28;20453;-75
2023/03/05 09:30:19;;;;;;;21.50;11.10;;;6.00;99.90;;;;;;5031098;28;20784;-74
2023/03/05 09:33:05;;;;;;;18.47;10.53;;;5.90;99.90;;;;;;5025103;28;20980;-74
2023/03/05 09:35:52;;;;;;;21.35;11.48;;;5.90;99.90;;;;;;5025865;28;20489;-74
2023/03/05 09:38:39;;;;;;;26.30;11.07;;;6.10;99.90;;;;;;5022090;28;20688;-74
2023/03/05 09:41:36;;;;;;;18.30;10.40;;;6.20;99.90;;;;;;5037007;28;20920;-74
2023/03/05 09:44:31;;;;;;;18.60;9.60;;;6.30;99.90;;;;;;5030055;28;20778;-75
2023/03/05 09:47:30;;;;;;;18.50;10.40;;;6.30;99.90;;;;;;5021527;28;20470;-75
2023/03/05 09:50:31;;;;;;;22.10;11.40;;;6.30;99.90;;;;;;5021627;28;20589;-75
2023/03/05 09:53:35;;;;;;;17.70;9.57;;;6.30;99.90;;;;;;5032052;28;20449;-75
2023/03/05 09:56:26;;;;;;;21.03;8.30;;;6.40;99.90;;;;;;5025993;28;20474;-74
2023/03/05 09:59:22;;;;;;;20.70;9.23;;;6.50;99.90;;;;;;5027439;28;20974;-75
2023/03/05 10:02:15;;;;;;;23.23;8.87;;;6.50;99.90;;;;;;5024629;28;21069;-75
2023/03/05 10:05:04;;;;;;;21.43;9.60;;;6.40;99.90;;;;;;5025917;28;20446;-75
2023/03/05 10:07:55;;;;;;;18.37;8.93;;;6.40;99.90;;;;;;5019743;28;20437;-75
2023/03/05 10:10:44;;;;;;;15.00;9.02;;;6.20;99.90;;;;;;5024585;28;20975;-75
2023/03/05 10:13:32;;;;;;;18.50;8.93;;;6.30;99.90;;;;;;5028377;28;20219;-74
2023/03/05 10:16:40;;;;;;;15.67;8.07;;;6.40;99.90;;;;;;5024011;28;20297;-75
2023/03/05 10:19:50;;;;;;;14.53;9.10;;;6.40;99.90;;;;;;5026361;28;20445;-74
2023/03/05 10:22:56;;;;;;;20.00;9.97;;;6.40;99.90;;;;;;5032540;28;20824;-75
2023/03/05 10:26:27;;;;;;;17.63;8.23;;;6.20;99.90;;;;;;5026134;28;20468;-75
2023/03/05 10:29:26;;;;;;;12.70;7.10;;;6.40;99.90;;;;;;5014915;28;20971;-74
2023/03/05 10:32:25;;;;;;;40.20;15.07;;;6.60;99.90;;;;;;5021976;28;20822;-75
2023/03/05 10:35:35;;;;;;;17.17;9.70;;;6.60;99.90;;;;;;5024528;28;20450;-75
2023/03/05 10:38:46;;;;;;;26.90;13.20;;;6.70;99.90;;;;;;5024871;28;20505;-75
2023/03/05 10:41:42;;;;;;;32.83;19.03;;;6.90;99.90;;;;;;5022613;28;20605;-75
2023/03/05 10:44:34;;;;;;;17.33;8.47;;;6.90;99.90;;;;;;5029938;28;20451;-75
2023/03/05 10:47:25;;;;;;;26.50;9.83;;;7.00;95.00;;;;;;5022202;28;20470;-75
2023/03/05 10:50:17;;;;;;;17.43;9.90;;;7.10;96.30;;;;;;5028687;28;20459;-75
2023/03/05 10:53:14;;;;;;;12.07;7.30;;;7.10;95.50;;;;;;5020977;28;20934;-75
2023/03/05 10:56:02;;;;;;;13.43;8.07;;;7.20;95.50;;;;;;5021479;28;20475;-75
2023/03/05 10:58:51;;;;;;;18.90;9.57;;;7.20;93.90;;;;;;5025465;28;20504;-75
2023/03/05 11:01:37;;;;;;;17.57;8.83;;;7.30;92.70;;;;;;5024527;28;20473;-75
2023/03/05 11:04:28;;;;;;;13.70;7.50;;;7.30;92.10;;;;;;5023427;28;20445;-74
2023/03/05 11:07:37;;;;;;;17.17;7.00;;;7.30;91.70;;;;;;5016980;28;20479;-74
2023/03/05 11:10:23;;;;;;;12.03;6.30;;;7.10;83.40;;;;;;5023436;28;20449;-74
2023/03/05 11:13:25;;;;;;;17.10;8.00;;;7.10;87.30;;;;;;5026074;28;20516;-74
2023/03/05 11:16:18;;;;;;;14.20;7.67;;;7.10;85.20;;;;;;5021845;28;20959;-75
2023/03/05 11:19:20;;;;;;;11.90;6.43;;;7.10;86.20;;;;;;5026700;28;20447;-75
2023/03/05 11:22:14;;;;;;;11.63;6.70;;;6.90;76.30;;;;;;5022945;28;21061;-74
2023/03/05 11:25:13;;;;;;;15.97;6.93;;;6.70;78.90;;;;;;5016496;28;21199;-74
2023/03/05 11:28:01;;;;;;;11.83;5.80;;;6.60;83.00;;;;;;5024866;28;20587;-75
2023/03/05 11:30:56;;;;;;;11.53;6.67;;;6.80;81.60;;;;;;5026182;28;20901;-73
2023/03/05 11:33:55;;;;;;;21.48;7.53;;;6.80;78.20;;;;;;5021359;28;20931;-75
2023/03/05 11:36:43;;;;;;;13.03;7.67;;;6.90;79.00;;;;;;5018110;28;20306;-75
2023/03/05 11:39:30;;;;;;;12.60;6.60;;;7.10;78.40;;;;;;5021428;28;20530;-75
2023/03/05 11:42:23;;;;;;;12.87;5.80;;;7.10;75.20;;;;;;5033988;28;20600;-75
2023/03/05 11:45:16;;;;;;;12.83;6.60;;;7.00;72.50;;;;;;5032855;28;20441;-75
2023/03/05 11:48:09;;;;;;;11.80;6.80;;;6.80;75.70;;;;;;5022667;28;20975;-75
2023/03/05 11:50:59;;;;;;;13.00;7.13;;;6.70;75.60;;;;;;5016042;28;20461;-75
2023/03/05 11:53:48;;;;;;;10.43;6.03;;;6.70;79.00;;;;;;5022607;28;20425;-74
2023/03/05 11:56:38;;;;;;;18.00;7.53;;;6.70;80.60;;;;;;5023407;28;20848;-75
2023/03/05 11:59:27;;;;;;;12.73;6.77;;;6.80;78.70;;;;;;5024485;28;20940;-74
2023/03/05 12:02:18;;;;;;;14.80;6.70;;;6.80;77.10;;;;;;5027884;28;20460;-73
2023/03/05 12:05:06;;;;;;;13.53;7.60;;;6.70;77.60;;;;;;5018274;28;20438;-73
2023/03/05 12:07:56;;;;;;;15.87;8.00;;;6.60;78.60;;;;;;5022824;28;21441;-73
2023/03/05 12:10:42;;;;;;;12.23;6.70;;;6.50;79.10;;;;;;5018837;28;20458;-73
2023/03/05 12:13:34;;;;;;;15.20;6.80;;;6.50;80.30;;;;;;5019197;28;20484;-73
2023/03/05 12:16:28;;;;;;;16.83;7.20;;;6.60;80.60;;;;;;5015910;28;20481;-73
2023/03/05 12:19:43;;;;;;;14.00;6.90;;;6.60;79.70;;;;;;5022837;28;20438;-75
2023/03/05 12:22:37;;;;;;;19.03;7.17;;;6.60;79.50;;;;;;5020346;28;20458;-74
2023/03/05 12:25:32;;;;;;;12.70;6.10;;;6.60;79.20;;;;;;5025018;28;20421;-75
2023/03/05 12:28:55;;;;;;;16.30;7.57;;;6.60;79.80;;;;;;5025889;28;20451;-74
2023/03/05 12:31:44;;;;;;;14.47;7.10;;;6.60;81.40;;;;;;5021151;28;20978;-73
2023/03/05 12:34:46;;;;;;;11.80;6.80;;;6.80;80.50;;;;;;5025733;28;20590;-74
2023/03/05 12:38:21;;;;;;;12.50;6.87;;;6.80;79.90;;;;;;5027554;28;20628;-72
2023/03/05 12:41:43;;;;;;;14.20;7.93;;;6.80;79.10;;;;;;4966249;28;21344;-74
2023/03/05 12:44:30;;;;;;;12.60;6.93;;;6.60;78.50;;;;;;5030297;28;20530;-73
2023/03/05 12:47:18;;;;;;;18.13;6.87;;;6.60;78.70;;;;;;5030167;28;20461;-73
2023/03/05 12:50:04;;;;;;;10.93;6.50;;;6.60;79.80;;;;;;5031283;28;21032;-74
2023/03/05 12:52:50;;;;;;;11.87;6.90;;;6.50;80.30;;;;;;5034545;28;20600;-74
2023/03/05 12:55:43;;;;;;;11.83;5.60;;;6.40;80.50;;;;;;5024155;28;21204;-74
2023/03/05 12:58:37;;;;;;;11.43;6.43;;;6.40;81.90;;;;;;5028270;28;20477;-74
2023/03/05 13:01:42;;;;;;;9.70;5.13;;;6.40;82.90;;;;;;5028774;28;20454;-74
2023/03/05 13:04:30;;;;;;;10.00;4.90;;;6.40;79.60;;;;;;5031199;28;20450;-73
2023/03/05 13:07:18;;;;;;;10.87;6.23;;;6.40;80.90;;;;;;5027425;28;20618;-74
2023/03/05 13:10:04;;;;;;;11.30;6.00;;;6.40;82.00;;;;;;5032383;28;20472;-74
2023/03/05 13:12:52;;;;;;;11.30;5.45;;;6.50;81.20;;;;;;5026804;28;20530;-74
2023/03/05 13:15:38;;;;;;;9.90;5.47;;;6.60;81.20;;;;;;5024501;28;20230;-73
2023/03/05 13:18:28;;;;;;;8.37;4.83;;;6.60;79.70;;;;;;5030186;28;20998;-74
2023/03/05 13:21:16;;;;;;;12.17;5.10;;;6.70;78.70;;;;;;5033048;28;20981;-73
2023/03/05 13:24:03;;;;;;;11.30;5.43;;;6.60;78.30;;;;;;5022659;28;20541;-74
2023/03/05 13:26:49;;;;;;;11.77;5.97;;;6.70;78.70;;;;;;5025141;28;20528;-74
2023/03/05 13:29:35;;;;;;;14.50;8.40;;;6.60;79.20;;;;;;5026763;28;20925;-74
2023/03/05 13:32:25;;;;;;;15.17;7.53;;;6.50;79.00;;;;;;5028434;28;20533;-74
2023/03/05 13:35:13;;;;;;;14.00;6.33;;;6.30;78.90;;;;;;5024560;28;20428;-74
2023/03/05 13:37:59;;;;;;;10.10;4.70;;;6.30;80.10;;;;;;5021178;28;21003;-74
2023/03/05 13:40:45;;;;;;;12.47;6.57;;;6.30;81.20;;;;;;5030873;28;21051;-73
2023/03/05 13:43:30;;;;;;;9.80;5.27;;;6.30;82.30;;;;;;5024559;28;21221;-73
2023/03/05 13:46:24;;;;;;;11.30;6.20;;;6.20;82.70;;;;;;5025018;28;20501;-74
2023/03/05 13:49:22;;;;;;;17.40;9.10;;;6.20;83.30;;;;;;5024909;28;20449;-74
2023/03/05 13:52:10;;;;;;;20.50;11.13;;;6.20;81.60;;;;;;5027974;28;20498;-73
2023/03/05 13:54:56;;;;;;;10.60;5.53;;;6.30;81.90;;;;;;5025802;28;20454;-74
2023/03/05 13:57:43;;;;;;;10.33;5.40;;;6.40;82.90;;;;;;5034231;28;20254;-74
2023/03/05 14:00:32;;;;;;;12.80;7.27;;;6.40;81.90;;;;;;5022503;28;20538;-76
2023/03/05 14:03:23;;;;;;;13.40;6.90;;;6.30;81.60;;;;;;5020129;28;20424;-75
2023/03/05 14:06:11;;;;;;;37.07;20.00;;;6.30;82.80;;;;;;5025725;28;20456;-76
2023/03/05 14:09:04;;;;;;;20.43;12.20;;;6.20;82.70;;;;;;5024074;28;20446;-72
2023/03/05 14:11:55;;;;;;;19.47;9.33;;;6.20;83.00;;;;;;5028613;28;20447;-75
2023/03/05 14:14:43;;;;;;;32.77;21.90;;;6.30;83.30;;;;;;5030978;28;20450;-75
2023/03/05 14:17:40;;;;;;;17.37;7.93;;;6.20;82.30;;;;;;5021670;28;20472;-76
2023/03/05 14:20:27;;;;;;;16.73;9.20;;;6.20;82.70;;;;;;5019166;28;20417;-73
2023/03/05 14:23:26;;;;;;;27.17;14.27;;;6.20;82.70;;;;;;5026585;28;20454;-74
2023/03/05 14:26:30;;;;;;;13.27;8.33;;;6.20;83.40;;;;;;5030239;28;20515;-72
2023/03/05 14:29:18;;;;;;;20.55;12.77;;;6.20;82.70;;;;;;5022188;28;20567;-74
2023/03/05 14:32:06;;;;;;;11.23;6.20;;;6.20;82.70;;;;;;5027748;28;20269;-74